Time;durP1;ratioP1;P1;durP2;ratioP2;P2;SDS_P1;SDS_P2;PMS_P1;PMS_P2;Temp;Humidity;BMP_temperature;BMP_pressure;BME280_temperature;BME280_humidity;BME280_pressure;Samples;Min_cycle;Max_cycle;Signal;HPM_P1;HPM_P2
2021/01/28 00:00:50;;;;;;;74.85;26.17;;;7.40;99.40;;;;;;5055587;28;20055;-87
2021/01/28 00:03:20;;;;;;;79.90;27.92;;;7.40;99.40;;;;;;5071218;28;20399;-87
2021/01/28 00:05:56;;;;;;;71.43;26.33;;;7.40;99.40;;;;;;5086166;28;20048;-89
2021/01/28 00:08:23;;;;;;;85.07;27.45;;;7.30;99.40;;;;;;5049099;28;20036;-87
2021/01/28 00:10:53;;;;;;;90.55;30.52;;;7.30;99.40;;;;;;5086544;28;20394;-87
2021/01/28 00:13:30;;;;;;;66.20;25.05;;;7.40;99.40;;;;;;5083105;28;20056;-88
2021/01/28 00:16:00;;;;;;;79.82;26.08;;;7.30;99.40;;;;;;5054269;28;20032;-90
2021/01/28 00:18:27;;;;;;;76.13;26.38;;;7.30;99.40;;;;;;5067750;28;20825;-88
2021/01/28 00:20:54;;;;;;;69.82;23.92;;;7.30;99.70;;;;;;5073686;28;20036;-87
2021/01/28 00:23:24;;;;;;;107.25;30.75;;;7.40;99.40;;;;;;5053983;28;20371;-87
2021/01/28 00:25:50;;;;;;;58.88;22.27;;;7.30;99.40;;;;;;5054519;28;20040;-87
2021/01/28 00:28:20;;;;;;;78.20;25.55;;;7.30;99.40;;;;;;5062181;28;20036;-85
2021/01/28 00:30:52;;;;;;;80.70;28.02;;;7.30;99.40;;;;;;5086336;28;20051;-87
2021/01/28 00:33:24;;;;;;;83.65;28.30;;;7.30;99.40;;;;;;5083964;28;20483;-85
2021/01/28 00:35:54;;;;;;;63.42;24.42;;;7.30;99.40;;;;;;5067575;28;20382;-84
2021/01/28 00:38:25;;;;;;;62.75;22.00;;;7.30;99.40;;;;;;5067205;28;20035;-85
2021/01/28 00:40:52;;;;;;;48.03;19.65;;;7.30;99.50;;;;;;5066151;28;20378;-86
2021/01/28 00:43:19;;;;;;;47.30;16.83;;;7.30;99.50;;;;;;5050373;28;20494;-85
2021/01/28 00:45:47;;;;;;;51.17;19.02;;;7.30;99.50;;;;;;5087944;28;20052;-85
2021/01/28 00:48:14;;;;;;;58.45;21.25;;;7.30;99.50;;;;;;5052369;28;20040;-85
2021/01/28 00:50:42;;;;;;;54.15;19.15;;;7.30;99.50;;;;;;5037939;28;20059;-85
2021/01/28 00:53:11;;;;;;;59.50;19.73;;;7.40;99.50;;;;;;5037824;28;20044;-86
2021/01/28 00:55:40;;;;;;;51.38;19.80;;;7.30;99.50;;;;;;5069227;28;20039;-85
2021/01/28 00:58:16;;;;;;;63.38;22.58;;;7.30;99.50;;;;;;5071279;28;21347;-86
2021/01/28 01:00:45;;;;;;;69.88;22.58;;;7.30;99.50;;;;;;5069437;28;20569;-85
2021/01/28 01:03:17;;;;;;;44.83;17.80;;;7.30;99.50;;;;;;5052482;28;20052;-85
2021/01/28 01:05:44;;;;;;;55.58;21.40;;;7.30;99.50;;;;;;5068477;28;20050;-86
2021/01/28 01:08:15;;;;;;;66.28;20.75;;;7.30;99.50;;;;;;5069700;28;20028;-86
2021/01/28 01:11:03;;;;;;;65.50;23.25;;;7.30;99.50;;;;;;5076781;28;20031;-85
2021/01/28 01:13:36;;;;;;;58.42;21.88;;;7.30;99.50;;;;;;5051458;28;20606;-85
2021/01/28 01:16:13;;;;;;;74.22;20.98;;;7.20;99.50;;;;;;5067367;28;20040;-86
2021/01/28 01:18:46;;;;;;;139.98;28.45;;;7.20;99.50;;;;;;5050807;28;20482;-85
2021/01/28 01:21:13;;;;;;;78.20;22.02;;;7.20;99.50;;;;;;5067575;28;20802;-86
2021/01/28 01:23:40;;;;;;;83.05;21.35;;;7.20;99.50;;;;;;5035392;28;20475;-86
2021/01/28 01:26:13;;;;;;;;;;;7.20;99.50;;;;;;5082136;28;20118;-85
2021/01/28 01:28:40;;;;;;;63.13;18.60;;;7.20;99.50;;;;;;5075296;28;19918;-87
2021/01/28 01:31:16;;;;;;;85.65;22.58;;;7.20;99.60;;;;;;5037839;28;20047;-87
2021/01/28 01:33:43;;;;;;;86.95;21.73;;;7.20;99.60;;;;;;5068929;28;20074;-87
2021/01/28 01:36:12;;;;;;;112.88;24.23;;;7.20;99.50;;;;;;5049903;28;20043;-87
2021/01/28 01:38:47;;;;;;;67.68;20.40;;;7.20;99.50;;;;;;5084828;28;20414;-87
2021/01/28 01:41:15;;;;;;;93.20;23.60;;;7.20;99.50;;;;;;5034496;28;20038;-87
2021/01/28 01:43:45;;;;;;;95.95;24.42;;;7.20;99.50;;;;;;5036446;28;20044;-87
2021/01/28 01:46:15;;;;;;;77.40;20.13;;;7.30;99.50;;;;;;5066037;28;20048;-87
2021/01/28 01:48:47;;;;;;;62.13;18.10;;;7.30;99.60;;;;;;5051775;28;20037;-85
2021/01/28 01:51:23;;;;;;;70.20;18.40;;;7.30;99.50;;;;;;5054378;28;20584;-85
2021/01/28 01:54:04;;;;;;;78.20;18.42;;;7.30;99.50;;;;;;5073428;28;20054;-86
2021/01/28 01:56:51;;;;;;;67.47;19.90;;;7.30;99.60;;;;;;5051958;28;20032;-86
2021/01/28 01:59:23;;;;;;;64.75;16.67;;;7.30;99.50;;;;;;5052196;28;20502;-86
2021/01/28 02:02:22;;;;;;;73.07;19.23;;;7.30;99.50;;;;;;5063565;28;20059;-87
2021/01/28 02:05:29;;;;;;;70.07;19.73;;;7.30;99.50;;;;;;5085564;28;20056;-88
2021/01/28 02:08:20;;;;;;;54.30;15.65;;;7.30;99.60;;;;;;5043486;28;20048;-86
2021/01/28 02:11:10;;;;;;;62.58;16.33;;;7.30;99.50;;;;;;5057807;28;20375;-85
2021/01/28 02:14:00;;;;;;;68.57;17.23;;;7.30;99.60;;;;;;5066779;28;20051;-87
2021/01/28 02:16:56;;;;;;;66.30;17.95;;;7.30;99.60;;;;;;5087173;28;20507;-86
2021/01/28 02:20:13;;;;;;;58.28;16.38;;;7.40;99.60;;;;;;5072528;28;20040;-86
2021/01/28 02:23:08;;;;;;;78.45;19.30;;;7.30;99.50;;;;;;5060332;28;20043;-86
2021/01/28 02:25:37;;;;;;;70.28;17.15;;;7.40;99.60;;;;;;5082101;28;20039;-86
2021/01/28 02:28:08;;;;;;;74.30;18.65;;;7.40;99.60;;;;;;5084962;28;20040;-87
2021/01/28 02:30:58;;;;;;;99.47;20.42;;;7.40;99.60;;;;;;5066459;28;20040;-86
2021/01/28 02:33:45;;;;;;;74.60;19.52;;;7.40;99.60;;;;;;5068558;28;20032;-86
2021/01/28 02:36:46;;;;;;;68.63;18.02;;;7.40;99.60;;;;;;5068511;28;20047;-86
2021/01/28 02:39:48;;;;;;;70.72;18.58;;;7.40;99.60;;;;;;5080073;28;20032;-86
2021/01/28 02:42:29;;;;;;;69.38;17.88;;;7.40;99.60;;;;;;5053625;28;20046;-86
2021/01/28 02:45:18;;;;;;;60.53;17.67;;;7.40;99.60;;;;;;5072044;28;20043;-86
2021/01/28 02:48:07;;;;;;;79.55;20.50;;;7.40;99.70;;;;;;5092292;28;20040;-86
2021/01/28 02:50:52;;;;;;;85.25;21.00;;;7.40;99.60;;;;;;5065943;28;20036;-87
2021/01/28 02:53:20;;;;;;;76.32;19.55;;;7.40;99.60;;;;;;5049779;28;20059;-86
2021/01/28 02:55:50;;;;;;;86.07;20.10;;;7.40;99.60;;;;;;5034610;28;20051;-86
2021/01/28 02:58:17;;;;;;;67.88;17.60;;;7.40;99.70;;;;;;5068952;28;20037;-87
2021/01/28 03:01:14;;;;;;;76.68;19.08;;;7.40;99.70;;;;;;5069548;28;20032;-87
2021/01/28 03:03:43;;;;;;;69.32;19.55;;;7.40;99.70;;;;;;5070127;28;20387;-86
2021/01/28 03:06:11;;;;;;;71.10;17.92;;;7.40;99.70;;;;;;5070773;28;20055;-87
2021/01/28 03:08:39;;;;;;;70.70;18.25;;;7.50;99.70;;;;;;5068398;28;20036;-87
2021/01/28 03:11:25;;;;;;;74.68;18.35;;;7.50;99.70;;;;;;5087964;28;20040;-87
2021/01/28 03:13:53;;;;;;;75.57;18.75;;;7.50;99.70;;;;;;5099797;28;20047;-87
2021/01/28 03:16:39;;;;;;;83.28;19.05;;;7.50;99.70;;;;;;5040163;28;20477;-87
2021/01/28 03:19:18;;;;;;;87.05;19.48;;;7.50;99.70;;;;;;5057521;28;20494;-86
2021/01/28 03:21:46;;;;;;;79.18;19.23;;;7.50;99.70;;;;;;5080737;28;20036;-86
2021/01/28 03:24:22;;;;;;;98.18;21.50;;;7.40;99.70;;;;;;5057061;28;20035;-86
2021/01/28 03:27:00;;;;;;;155.05;24.80;;;7.50;99.70;;;;;;5069980;28;20049;-86
2021/01/28 03:29:28;;;;;;;84.63;20.88;;;7.50;99.70;;;;;;5054361;28;20040;-84
2021/01/28 03:31:55;;;;;;;78.30;21.40;;;7.50;99.60;;;;;;5067572;28;20039;-86
2021/01/28 03:34:21;;;;;;;65.80;17.77;;;7.40;99.60;;;;;;5066126;28;20058;-86
2021/01/28 03:36:49;;;;;;;64.70;15.45;;;7.40;99.60;;;;;;5036461;28;20040;-87
2021/01/28 03:39:20;;;;;;;55.05;15.80;;;7.40;99.60;;;;;;5070026;28;20046;-86
2021/01/28 03:41:47;;;;;;;57.58;15.00;;;7.30;99.60;;;;;;5035932;28;20036;-86
2021/01/28 03:44:14;;;;;;;41.30;13.18;;;7.30;99.90;;;;;;5052475;28;20809;-86
2021/01/28 03:46:44;;;;;;;43.72;13.50;;;7.40;99.70;;;;;;5070656;28;20032;-85
2021/01/28 03:49:13;;;;;;;64.13;15.98;;;7.30;99.70;;;;;;5051409;28;20048;-85
2021/01/28 03:51:55;;;;;;;67.88;17.10;;;7.30;99.70;;;;;;5070200;28;20052;-84
2021/01/28 03:54:45;;;;;;;49.47;14.68;;;7.30;99.70;;;;;;5058245;28;20056;-86
2021/01/28 03:57:16;;;;;;;54.05;16.20;;;7.20;99.90;;;;;;5036529;28;20047;-85
2021/01/28 04:00:11;;;;;;;58.85;15.82;;;7.20;99.70;;;;;;5064238;28;20044;-85
2021/01/28 04:02:41;;;;;;;70.13;19.25;;;7.20;99.70;;;;;;5068383;28;20868;-86
2021/01/28 04:05:16;;;;;;;67.28;20.45;;;7.20;99.70;;;;;;5083290;28;20526;-85
2021/01/28 04:08:03;;;;;;;50.20;16.98;;;7.20;99.60;;;;;;5097178;28;20060;-85
2021/01/28 04:10:40;;;;;;;48.50;14.48;;;7.20;99.60;;;;;;5074399;28;20439;-85
2021/01/28 04:13:16;;;;;;;40.15;13.63;;;7.20;99.70;;;;;;5072719;28;20044;-85
2021/01/28 04:15:48;;;;;;;41.08;13.40;;;7.10;99.70;;;;;;5054023;28;20036;-85
2021/01/28 04:18:19;;;;;;;45.38;11.65;;;7.10;99.60;;;;;;5037298;28;20028;-85
2021/01/28 04:20:50;;;;;;;35.63;9.63;;;7.10;99.60;;;;;;5054860;28;20501;-85
2021/01/28 04:23:18;;;;;;;38.60;9.38;;;7.10;99.60;;;;;;5071016;28;20047;-85
2021/01/28 04:26:05;;;;;;;30.25;9.85;;;7.00;99.50;;;;;;5072391;28;20044;-85
2021/01/28 04:28:35;;;;;;;30.45;8.82;;;6.90;99.40;;;;;;5070369;28;20036;-86
2021/01/28 04:31:21;;;;;;;29.67;8.98;;;6.90;99.50;;;;;;5086371;28;20052;-86
2021/01/28 04:33:49;;;;;;;35.45;8.63;;;6.80;99.40;;;;;;5070807;28;20044;-87
2021/01/28 04:36:25;;;;;;;45.47;9.23;;;6.80;99.50;;;;;;5073179;28;20039;-87
2021/01/28 04:39:17;;;;;;;37.80;8.15;;;6.70;99.40;;;;;;5030727;28;20598;-87
2021/01/28 04:41:46;;;;;;;25.88;5.75;;;6.70;99.40;;;;;;5088056;28;20055;-86
2021/01/28 04:44:15;;;;;;;30.55;6.30;;;6.60;99.50;;;;;;5065963;28;20039;-87
2021/01/28 04:46:59;;;;;;;23.08;5.50;;;6.70;99.50;;;;;;5071694;28;20040;-87
2021/01/28 04:49:48;;;;;;;24.50;4.67;;;6.70;99.50;;;;;;5087066;28;20036;-87
2021/01/28 04:52:40;;;;;;;18.98;5.38;;;6.70;99.50;;;;;;5079062;28;20044;-86
2021/01/28 04:55:24;;;;;;;22.42;6.45;;;6.60;99.50;;;;;;5072557;28;20032;-87
2021/01/28 04:57:55;;;;;;;23.65;6.35;;;6.60;99.40;;;;;;5054645;28;20048;-86
2021/01/28 05:00:35;;;;;;;24.25;6.20;;;6.60;99.40;;;;;;5046058;28;20037;-87
2021/01/28 05:03:19;;;;;;;32.75;6.82;;;6.50;99.40;;;;;;5068760;28;20043;-87
2021/01/28 05:06:18;;;;;;;35.03;8.50;;;6.50;99.50;;;;;;5045552;28;20059;-87
2021/01/28 05:09:18;;;;;;;27.10;8.30;;;6.50;99.40;;;;;;5092190;28;20039;-86
2021/01/28 05:12:21;;;;;;;21.73;6.68;;;6.50;99.50;;;;;;5086859;28;20059;-86
2021/01/28 05:14:50;;;;;;;25.92;8.98;;;6.40;99.50;;;;;;5087001;28;20048;-86
2021/01/28 05:17:42;;;;;;;25.30;8.90;;;6.40;99.40;;;;;;5039231;28;20103;-86
2021/01/28 05:20:38;;;;;;;30.88;7.72;;;6.40;99.50;;;;;;5011961;28;20052;-87
2021/01/28 05:23:32;;;;;;;39.30;9.23;;;6.40;99.50;;;;;;5072030;28;20052;-87
2021/01/28 05:26:01;;;;;;;29.50;8.48;;;6.40;99.50;;;;;;5068663;28;20525;-86
2021/01/28 05:28:41;;;;;;;18.52;6.72;;;6.30;99.40;;;;;;5070313;28;20046;-86
2021/01/28 05:31:27;;;;;;;;;;;6.30;99.50;;;;;;5087762;28;20047;-87
2021/01/28 05:34:18;;;;;;;20.42;5.82;;;6.30;99.50;;;;;;5087252;28;19912;-86
2021/01/28 05:37:19;;;;;;;25.35;5.25;;;6.30;99.60;;;;;;5084999;28;20036;-92
2021/01/28 05:40:14;;;;;;;17.25;6.38;;;6.30;99.60;;;;;;5081662;28;20383;-86
2021/01/28 05:42:52;;;;;;;22.23;5.85;;;6.30;99.60;;;;;;5079802;28;20043;-84
2021/01/28 05:45:22;;;;;;;17.95;4.60;;;6.20;99.50;;;;;;5060530;28;20048;-84
2021/01/28 05:48:30;;;;;;;14.23;5.03;;;6.30;99.60;;;;;;5079214;28;20051;-87
2021/01/28 05:51:24;;;;;;;16.20;4.80;;;6.20;99.50;;;;;;5073346;28;20048;-87
2021/01/28 05:54:38;;;;;;;20.08;6.03;;;6.20;99.60;;;;;;4978981;28;20540;-86
2021/01/28 05:57:48;;;;;;;29.02;11.75;;;6.20;99.60;;;;;;5000756;28;20108;-84
2021/01/28 06:00:50;;;;;;;32.03;9.18;;;6.10;99.50;;;;;;5047245;28;20040;-85
2021/01/28 06:03:39;;;;;;;21.08;4.65;;;6.10;99.50;;;;;;5040380;28;20070;-86
2021/01/28 06:06:45;;;;;;;18.05;4.50;;;6.10;99.50;;;;;;5064949;28;20047;-86
2021/01/28 06:09:55;;;;;;;18.92;3.00;;;6.00;99.50;;;;;;5069468;28;20036;-87
2021/01/28 06:12:47;;;;;;;22.98;3.63;;;6.00;99.60;;;;;;5057482;28;20609;-88
2021/01/28 06:15:50;;;;;;;18.42;6.82;;;6.00;99.60;;;;;;5041702;28;20035;-88
2021/01/28 06:19:12;;;;;;;20.90;4.32;;;6.00;99.60;;;;;;5043761;28;20040;-87
2021/01/28 06:21:53;;;;;;;19.90;5.28;;;6.00;99.60;;;;;;5021439;28;20511;-87
2021/01/28 06:25:03;;;;;;;22.02;5.80;;;5.90;99.60;;;;;;5059695;28;20413;-87
2021/01/28 06:27:44;;;;;;;12.95;3.25;;;5.90;99.70;;;;;;5068002;28;20036;-88
2021/01/28 06:30:29;;;;;;;11.55;2.22;;;5.90;99.70;;;;;;5050150;28;20070;-88
2021/01/28 06:33:50;;;;;;;19.15;3.00;;;5.90;99.70;;;;;;5067425;28;20036;-88
2021/01/28 06:37:07;;;;;;;9.65;2.47;;;5.90;99.70;;;;;;5055577;28;20049;-88
2021/01/28 06:39:55;;;;;;;18.55;3.80;;;5.90;99.70;;;;;;5062858;28;20023;-87
2021/01/28 06:43:10;;;;;;;15.88;4.75;;;5.80;99.70;;;;;;5045257;28;20039;-86
2021/01/28 06:46:32;;;;;;;13.98;4.20;;;5.80;99.70;;;;;;5094371;28;20040;-86
2021/01/28 06:49:31;;;;;;;11.48;3.50;;;5.80;99.70;;;;;;5079592;28;20036;-87
2021/01/28 06:52:16;;;;;;;11.52;3.17;;;5.70;99.80;;;;;;5060276;28;20337;-87
2021/01/28 06:55:06;;;;;;;15.93;4.30;;;5.70;99.80;;;;;;5055692;28;20037;-86
2021/01/28 06:58:07;;;;;;;27.47;4.90;;;5.70;99.90;;;;;;5059497;28;20502;-87
2021/01/28 07:00:54;;;;;;;14.90;4.20;;;5.70;99.90;;;;;;5065324;28;20024;-86
2021/01/28 07:03:41;;;;;;;15.02;5.15;;;5.80;99.90;;;;;;5066978;28;20528;-87
2021/01/28 07:06:52;;;;;;;27.70;5.75;;;5.70;99.90;;;;;;5047216;28;20052;-87
2021/01/28 07:09:47;;;;;;;17.25;4.97;;;5.70;99.90;;;;;;5067354;28;20040;-86
2021/01/28 07:12:20;;;;;;;24.48;5.25;;;5.70;99.90;;;;;;5049455;28;20044;-87
2021/01/28 07:15:10;;;;;;;23.17;6.22;;;5.70;99.90;;;;;;5082801;28;20050;-88
2021/01/28 07:18:04;;;;;;;34.83;8.23;;;5.80;99.90;;;;;;5066925;28;20040;-85
2021/01/28 07:20:38;;;;;;;19.17;5.80;;;5.80;99.90;;;;;;5085033;28;20039;-84
2021/01/28 07:23:28;;;;;;;19.13;5.47;;;5.70;99.90;;;;;;5064085;28;20807;-86
2021/01/28 07:26:20;;;;;;;18.50;5.78;;;5.70;99.90;;;;;;5053310;28;20039;-86
2021/01/28 07:28:48;;;;;;;24.73;6.40;;;5.70;99.90;;;;;;5065614;28;20032;-86
2021/01/28 07:31:39;;;;;;;13.30;5.28;;;5.70;99.90;;;;;;5063671;28;20051;-86
2021/01/28 07:34:10;;;;;;;20.08;6.45;;;5.70;99.90;;;;;;5049893;28;20040;-87
2021/01/28 07:36:58;;;;;;;15.10;5.75;;;5.70;99.90;;;;;;5081412;28;20028;-86
2021/01/28 07:39:45;;;;;;;22.65;6.47;;;5.70;99.90;;;;;;5064856;28;20031;-86
2021/01/28 07:42:31;;;;;;;21.27;6.80;;;5.70;99.90;;;;;;5082792;28;20048;-87
2021/01/28 07:45:29;;;;;;;16.48;6.50;;;5.70;99.90;;;;;;5081016;28;20040;-85
2021/01/28 07:48:29;;;;;;;36.65;14.40;;;5.70;99.90;;;;;;5064395;28;20044;-87
2021/01/28 07:51:49;;;;;;;31.90;14.30;;;5.60;99.90;;;;;;5070534;28;20134;-88
2021/01/28 07:54:22;;;;;;;21.98;8.27;;;5.60;99.90;;;;;;5059078;28;20044;-85
2021/01/28 07:57:09;;;;;;;29.40;7.90;;;5.70;99.90;;;;;;5063220;28;20028;-86
2021/01/28 08:00:00;;;;;;;18.77;6.35;;;5.70;99.90;;;;;;5045784;28;20039;-87
2021/01/28 08:02:34;;;;;;;19.30;6.05;;;5.70;99.90;;;;;;5063098;28;20032;-86
2021/01/28 08:05:21;;;;;;;18.88;5.28;;;5.60;99.90;;;;;;5068453;28;20052;-86
2021/01/28 08:08:03;;;;;;;13.32;4.15;;;5.70;99.90;;;;;;5047838;28;20039;-86
2021/01/28 08:10:40;;;;;;;16.00;4.53;;;5.60;99.90;;;;;;5096599;28;20040;-86
2021/01/28 08:13:08;;;;;;;13.63;4.75;;;5.60;99.90;;;;;;5069546;28;20123;-87
2021/01/28 08:15:42;;;;;;;11.75;3.40;;;5.70;99.90;;;;;;5082361;28;20402;-87
2021/01/28 08:18:20;;;;;;;14.20;5.85;;;5.70;99.90;;;;;;5051205;28;21023;-87
2021/01/28 08:20:48;;;;;;;17.00;6.20;;;5.70;99.90;;;;;;5079560;28;20487;-86
2021/01/28 08:23:24;;;;;;;19.17;5.93;;;5.70;99.90;;;;;;5075931;28;20145;-87
2021/01/28 08:26:00;;;;;;;14.05;5.25;;;5.70;99.90;;;;;;5072185;28;20782;-86
2021/01/28 08:28:30;;;;;;;9.70;3.70;;;5.70;99.90;;;;;;5050320;28;20036;-87
2021/01/28 08:31:07;;;;;;;18.08;6.57;;;5.70;99.90;;;;;;5082875;28;20052;-87
2021/01/28 08:33:36;;;;;;;13.13;5.40;;;5.70;99.90;;;;;;5084555;28;20411;-84
2021/01/28 08:36:15;;;;;;;10.85;5.55;;;5.70;99.90;;;;;;5067504;28;20044;-83
2021/01/28 08:38:46;;;;;;;20.05;6.25;;;5.70;99.90;;;;;;5083374;28;20051;-87
2021/01/28 08:41:20;;;;;;;15.30;5.55;;;5.70;99.90;;;;;;5062412;28;20466;-84
2021/01/28 08:44:12;;;;;;;12.82;5.93;;;5.70;99.90;;;;;;5055690;28;20032;-86
2021/01/28 08:46:53;;;;;;;13.18;5.05;;;5.80;99.90;;;;;;5081876;28;20093;-83
2021/01/28 08:49:35;;;;;;;;;;;5.80;99.90;;;;;;5082314;28;20054;-82
2021/01/28 08:52:06;;;;;;;18.90;6.93;;;5.80;99.90;;;;;;5070909;28;19916;-83
2021/01/28 08:54:47;;;;;;;13.43;5.35;;;5.80;99.90;;;;;;5083210;28;20035;-85
2021/01/28 08:57:20;;;;;;;13.35;6.07;;;5.80;99.90;;;;;;5051600;28;20043;-86
2021/01/28 09:00:00;;;;;;;12.52;5.75;;;5.80;99.90;;;;;;5066662;28;20034;-83
2021/01/28 09:02:31;;;;;;;13.05;6.15;;;5.80;99.90;;;;;;5084443;28;20040;-84
2021/01/28 09:05:34;;;;;;;13.20;5.57;;;5.80;99.90;;;;;;5065534;28;20506;-85
2021/01/28 09:08:21;;;;;;;13.20;5.63;;;5.80;99.90;;;;;;5053147;28;20055;-85
2021/01/28 09:10:50;;;;;;;9.80;4.95;;;5.80;99.90;;;;;;5061872;28;20032;-85
2021/01/28 09:13:32;;;;;;;14.90;6.43;;;5.80;99.90;;;;;;5084508;28;20513;-84
2021/01/28 09:16:15;;;;;;;18.85;6.93;;;5.80;99.90;;;;;;5082782;28;20048;-86
2021/01/28 09:18:50;;;;;;;16.30;7.03;;;5.90;99.90;;;;;;5081898;28;20050;-86
2021/01/28 09:21:22;;;;;;;19.17;7.60;;;5.80;99.90;;;;;;5083660;28;20036;-87
2021/01/28 09:24:01;;;;;;;17.50;6.90;;;5.90;99.90;;;;;;5067309;28;20044;-87
2021/01/28 09:26:32;;;;;;;19.00;8.05;;;5.90;99.90;;;;;;5084126;28;20040;-87
2021/01/28 09:29:18;;;;;;;20.97;8.57;;;5.80;99.90;;;;;;5059887;28;20044;-87
2021/01/28 09:31:46;;;;;;;19.50;8.40;;;5.90;99.90;;;;;;5074767;28;20424;-87
2021/01/28 09:34:24;;;;;;;16.17;7.18;;;5.90;99.90;;;;;;5065163;28;20498;-87
2021/01/28 09:37:22;;;;;;;18.65;9.57;;;5.90;99.90;;;;;;5082483;28;20047;-87
2021/01/28 09:39:54;;;;;;;20.60;10.00;;;5.90;99.90;;;;;;5053521;28;20039;-87
2021/01/28 09:42:30;;;;;;;21.93;10.07;;;5.90;99.90;;;;;;5067149;28;20048;-86
2021/01/28 09:45:07;;;;;;;20.15;10.93;;;5.90;99.90;;;;;;5081325;28;20516;-86
2021/01/28 09:47:35;;;;;;;21.40;10.80;;;5.90;99.90;;;;;;5083615;28;20032;-86
2021/01/28 09:50:10;;;;;;;31.55;12.27;;;5.90;99.90;;;;;;5082204;28;20377;-86
2021/01/28 09:52:40;;;;;;;21.00;9.82;;;5.90;99.90;;;;;;5067469;28;20581;-86
2021/01/28 09:55:11;;;;;;;26.05;12.43;;;6.00;99.90;;;;;;5082944;28;20426;-86
2021/01/28 09:57:40;;;;;;;25.30;12.20;;;6.00;99.90;;;;;;5077818;28;20040;-86
2021/01/28 10:00:10;;;;;;;25.55;12.40;;;6.10;99.90;;;;;;5066493;28;20514;-85
2021/01/28 10:02:45;;;;;;;25.38;12.13;;;6.00;99.90;;;;;;5067269;28;20534;-85
2021/01/28 10:05:15;;;;;;;25.25;13.10;;;6.00;99.90;;;;;;5066443;28;20052;-85
2021/01/28 10:07:47;;;;;;;24.33;12.93;;;6.10;99.90;;;;;;5082481;28;20513;-85
2021/01/28 10:10:15;;;;;;;30.95;15.98;;;6.00;99.90;;;;;;5084158;28;20031;-86
2021/01/28 10:12:42;;;;;;;31.42;15.70;;;6.10;99.90;;;;;;5066798;28;20547;-86
2021/01/28 10:15:10;;;;;;;30.55;15.18;;;6.00;99.90;;;;;;5082822;28;20407;-86
2021/01/28 10:17:36;;;;;;;29.92;14.95;;;6.10;99.90;;;;;;5065342;28;20043;-85
2021/01/28 10:20:05;;;;;;;44.80;19.50;;;6.10;99.90;;;;;;5083933;28;20043;-85
2021/01/28 10:22:36;;;;;;;30.67;15.57;;;6.10;99.90;;;;;;5032917;28;20148;-86
2021/01/28 10:25:05;;;;;;;39.92;17.45;;;6.10;99.90;;;;;;5083049;28;20517;-85
2021/01/28 10:27:33;;;;;;;38.90;18.65;;;6.10;99.90;;;;;;5064231;28;20032;-85
2021/01/28 10:30:00;;;;;;;43.28;19.83;;;6.10;99.90;;;;;;5061732;28;20039;-86
2021/01/28 10:32:27;;;;;;;30.02;15.60;;;6.10;99.90;;;;;;5078180;28;20039;-85
2021/01/28 10:34:56;;;;;;;39.35;19.33;;;6.00;99.90;;;;;;5066719;28;20032;-86
2021/01/28 10:37:23;;;;;;;41.92;19.05;;;6.10;99.90;;;;;;5065479;28;20027;-86
2021/01/28 10:39:52;;;;;;;40.10;18.95;;;6.10;99.90;;;;;;5065742;28;20043;-86
2021/01/28 10:42:31;;;;;;;30.95;16.23;;;6.10;99.90;;;;;;5066161;28;20039;-86
2021/01/28 10:45:01;;;;;;;36.22;17.65;;;6.10;99.90;;;;;;5080525;28;20028;-85
2021/01/28 10:47:30;;;;;;;43.03;19.15;;;6.10;99.90;;;;;;5079220;28;20050;-85
2021/01/28 10:49:57;;;;;;;29.27;16.33;;;6.10;99.90;;;;;;5078856;28;20048;-84
2021/01/28 10:52:24;;;;;;;35.30;17.88;;;6.10;99.90;;;;;;5082276;28;20036;-85
2021/01/28 10:54:50;;;;;;;35.13;16.10;;;6.20;99.90;;;;;;5083273;28;20036;-85
2021/01/28 10:57:17;;;;;;;31.70;16.92;;;6.20;99.90;;;;;;5065064;28;20040;-85
2021/01/28 10:59:44;;;;;;;34.53;18.90;;;6.20;99.90;;;;;;5066012;28;20032;-85
2021/01/28 11:02:10;;;;;;;38.17;20.00;;;6.20;99.90;;;;;;5051160;28;20032;-84
2021/01/28 11:04:37;;;;;;;38.45;18.40;;;6.20;99.90;;;;;;5048767;28;20491;-85
2021/01/28 11:07:04;;;;;;;33.35;15.88;;;6.10;99.90;;;;;;5079877;28;20044;-85
2021/01/28 11:09:32;;;;;;;23.65;14.07;;;6.10;99.90;;;;;;5082222;28;20039;-82
2021/01/28 11:12:12;;;;;;;31.40;15.18;;;6.10;99.90;;;;;;5103194;27;20436;-84
2021/01/28 11:14:41;;;;;;;32.53;16.58;;;6.10;99.90;;;;;;5083334;28;20052;-89
2021/01/28 11:17:08;;;;;;;33.47;16.98;;;6.10;99.90;;;;;;5074270;28;20032;-89
2021/01/28 11:19:35;;;;;;;40.30;18.95;;;6.10;99.90;;;;;;5066910;28;20048;-86
2021/01/28 11:22:02;;;;;;;29.15;16.33;;;6.10;99.90;;;;;;5106603;28;20051;-87
2021/01/28 11:24:29;;;;;;;26.57;15.77;;;6.10;99.90;;;;;;5110830;28;20048;-88
2021/01/28 11:27:01;;;;;;;28.20;16.08;;;6.10;99.90;;;;;;5077131;28;20055;-87
2021/01/28 11:29:27;;;;;;;25.80;15.15;;;6.10;99.90;;;;;;5097522;28;20048;-88
2021/01/28 11:31:54;;;;;;;20.80;13.52;;;6.10;99.90;;;;;;5060562;28;20043;-89
2021/01/28 11:34:21;;;;;;;27.23;15.77;;;6.10;99.90;;;;;;5065811;28;20602;-88
2021/01/28 11:36:52;;;;;;;25.35;14.50;;;6.10;99.90;;;;;;5064270;28;20028;-89
2021/01/28 11:39:18;;;;;;;20.15;12.10;;;6.10;99.90;;;;;;5059742;28;20020;-87
2021/01/28 11:41:45;;;;;;;20.75;11.93;;;6.10;99.90;;;;;;5065478;28;20043;-87
2021/01/28 11:44:12;;;;;;;24.83;11.98;;;6.10;99.90;;;;;;5061661;28;20035;-87
2021/01/28 11:46:46;;;;;;;18.33;11.77;;;6.10;99.90;;;;;;5080325;28;20040;-87
2021/01/28 11:49:13;;;;;;;19.40;11.50;;;6.10;99.90;;;;;;5065283;28;20047;-90
2021/01/28 11:51:39;;;;;;;18.55;11.48;;;6.20;99.90;;;;;;5078292;28;20048;-90
2021/01/28 11:54:06;;;;;;;20.55;12.48;;;6.20;99.90;;;;;;5039671;28;20058;-92
2021/01/28 11:56:39;;;;;;;20.65;12.68;;;6.20;99.90;;;;;;5072141;28;20035;-91
2021/01/28 11:59:14;;;;;;;18.98;12.52;;;6.20;99.90;;;;;;5060273;28;20032;-87
2021/01/28 12:01:44;;;;;;;23.73;13.43;;;6.30;99.90;;;;;;5076607;28;20044;-91
2021/01/28 12:04:18;;;;;;;20.02;11.75;;;6.30;99.90;;;;;;5074113;28;20414;-89
2021/01/28 12:06:45;;;;;;;25.20;13.85;;;6.40;99.90;;;;;;5063926;28;20043;-90
2021/01/28 12:09:12;;;;;;;18.05;11.95;;;6.50;99.90;;;;;;5098704;28;20058;-91
2021/01/28 12:11:38;;;;;;;20.92;12.73;;;6.50;99.90;;;;;;5079932;28;20043;-90
2021/01/28 12:14:05;;;;;;;22.90;14.88;;;6.60;99.90;;;;;;5095739;28;20044;-86
2021/01/28 12:16:34;;;;;;;20.67;13.07;;;6.60;99.90;;;;;;5069165;28;20031;-89
2021/01/28 12:19:01;;;;;;;20.77;13.18;;;6.60;99.90;;;;;;5062422;28;20028;-88
2021/01/28 12:21:29;;;;;;;20.55;13.23;;;6.60;99.90;;;;;;5057089;28;20043;-88
2021/01/28 12:23:56;;;;;;;20.08;13.65;;;6.60;99.90;;;;;;5052042;28;20047;-87
2021/01/28 12:26:23;;;;;;;18.48;12.77;;;6.60;99.90;;;;;;5036376;28;20044;-89
2021/01/28 12:28:50;;;;;;;20.70;13.98;;;6.60;99.90;;;;;;5046849;28;20036;-88
2021/01/28 12:31:17;;;;;;;20.05;13.20;;;6.50;99.90;;;;;;5078599;28;20044;-88
2021/01/28 12:33:44;;;;;;;18.63;13.00;;;6.50;99.90;;;;;;5051080;28;20040;-86
2021/01/28 12:36:11;;;;;;;19.92;13.80;;;6.40;99.90;;;;;;5048021;28;20054;-88
2021/01/28 12:38:39;;;;;;;22.10;13.25;;;6.40;99.90;;;;;;5060354;28;20763;-88
2021/01/28 12:41:06;;;;;;;17.83;11.65;;;6.40;99.90;;;;;;5048154;28;20059;-89
2021/01/28 12:43:32;;;;;;;18.25;11.27;;;6.40;99.90;;;;;;5059568;28;20402;-89
2021/01/28 12:45:59;;;;;;;23.10;13.57;;;6.50;99.90;;;;;;5066124;28;20048;-88
2021/01/28 12:48:29;;;;;;;18.35;11.68;;;6.50;99.90;;;;;;5071637;28;20049;-88
2021/01/28 12:50:56;;;;;;;15.55;10.00;;;6.50;99.90;;;;;;5050902;28;20048;-89
2021/01/28 12:53:22;;;;;;;14.73;10.27;;;6.50;99.90;;;;;;5059233;28;20041;-87
2021/01/28 12:55:49;;;;;;;15.30;9.63;;;6.50;99.90;;;;;;5044327;28;20052;-87
2021/01/28 12:58:17;;;;;;;11.57;8.38;;;6.50;99.90;;;;;;5038743;28;20036;-85
2021/01/28 13:00:43;;;;;;;12.63;7.63;;;6.40;99.90;;;;;;5059069;28;20380;-86
2021/01/28 13:03:10;;;;;;;15.13;9.00;;;6.40;99.90;;;;;;5051101;28;20039;-87
2021/01/28 13:05:37;;;;;;;11.52;7.47;;;6.40;99.90;;;;;;5088348;28;20036;-86
2021/01/28 13:08:04;;;;;;;9.73;6.05;;;6.40;99.90;;;;;;5053731;28;20056;-87
2021/01/28 13:10:31;;;;;;;10.15;6.68;;;6.30;99.90;;;;;;5046623;28;20059;-90
2021/01/28 13:13:22;;;;;;;;;;;;;;;;;;;;;
2021/01/28 13:15:55;;;;;;;10.63;7.60;;;6.30;99.90;;;;;;5047261;28;20842;-86
2021/01/28 13:18:22;;;;;;;12.93;7.43;;;6.30;99.90;;;;;;5056492;28;20107;-90
2021/01/28 13:20:51;;;;;;;8.93;6.07;;;6.30;99.90;;;;;;5063719;28;20059;-87
2021/01/28 13:23:17;;;;;;;9.30;6.35;;;6.30;99.90;;;;;;5048890;28;20041;-86
2021/01/28 13:25:44;;;;;;;8.70;6.15;;;6.30;99.90;;;;;;5036970;28;20044;-87
2021/01/28 13:28:11;;;;;;;10.45;7.55;;;6.30;99.90;;;;;;5062938;28;20044;-88
2021/01/28 13:30:38;;;;;;;14.15;8.48;;;6.30;99.90;;;;;;5063386;28;20483;-88
2021/01/28 13:33:12;;;;;;;13.73;7.93;;;6.20;99.90;;;;;;5057089;28;20035;-88
2021/01/28 13:35:38;;;;;;;11.45;7.70;;;6.20;99.90;;;;;;5078908;28;20043;-89